sensor_id;sensor_type;location;lat;lon;timestamp;pressure;altitude;pressure_sealevel;temperature
76347;BMP280;65171;48.378;10.010;2022-11-22T00:00:06;94191.50;;;3.94
76347;BMP280;65171;48.378;10.010;2022-11-22T00:02:31;94186.44;;;3.87
76347;BMP280;65171;48.378;10.010;2022-11-22T00:04:57;94189.72;;;3.96
76347;BMP280;65171;48.378;10.010;2022-11-22T00:07:22;94185.41;;;3.90
76347;BMP280;65171;48.378;10.010;2022-11-22T00:09:47;94177.81;;;3.85
76347;BMP280;65171;48.378;10.010;2022-11-22T00:12:12;94165.44;;;3.69
76347;BMP280;65171;48.378;10.010;2022-11-22T00:14:37;94169.47;;;3.74
76347;BMP280;65171;48.378;10.010;2022-11-22T00:17:02;94165.66;;;3.82
76347;BMP280;65171;48.378;10.010;2022-11-22T00:19:28;94159.53;;;3.89
76347;BMP280;65171;48.378;10.010;2022-11-22T00:21:53;94168.94;;;3.86
76347;BMP280;65171;48.378;10.010;2022-11-22T00:24:18;94150.97;;;3.76
76347;BMP280;65171;48.378;10.010;2022-11-22T00:26:43;94160.38;;;3.73
76347;BMP280;65171;48.378;10.010;2022-11-22T00:29:08;94159.63;;;3.67
76347;BMP280;65171;48.378;10.010;2022-11-22T00:31:34;94168.97;;;3.75
76347;BMP280;65171;48.378;10.010;2022-11-22T00:33:59;94161.38;;;3.70
76347;BMP280;65171;48.378;10.010;2022-11-22T00:36:24;94153.72;;;3.87
76347;BMP280;65171;48.378;10.010;2022-11-22T00:38:49;94174.03;;;3.71
76347;BMP280;65171;48.378;10.010;2022-11-22T00:41:15;94183.19;;;3.72
76347;BMP280;65171;48.378;10.010;2022-11-22T00:43:40;94179.91;;;3.62
76347;BMP280;65171;48.378;10.010;2022-11-22T00:46:05;94182.66;;;3.68
76347;BMP280;65171;48.378;10.010;2022-11-22T00:48:31;94189.75;;;3.69
76347;BMP280;65171;48.378;10.010;2022-11-22T00:50:56;94188.00;;;3.60
76347;BMP280;65171;48.378;10.010;2022-11-22T00:53:22;94176.34;;;3.67
76347;BMP280;65171;48.378;10.010;2022-11-22T00:55:48;94166.72;;;3.63
76347;BMP280;65171;48.378;10.010;2022-11-22T00:58:13;94155.31;;;3.72
76347;BMP280;65171;48.378;10.010;2022-11-22T01:00:38;94164.41;;;3.72
76347;BMP280;65171;48.378;10.010;2022-11-22T01:03:03;94168.47;;;3.77
76347;BMP280;65171;48.378;10.010;2022-11-22T01:05:28;94173.53;;;3.73
76347;BMP280;65171;48.378;10.010;2022-11-22T01:07:54;94190.03;;;3.65
76347;BMP280;65171;48.378;10.010;2022-11-22T01:10:19;94184.47;;;3.54
76347;BMP280;65171;48.378;10.010;2022-11-22T01:12:45;94185.47;;;3.73
76347;BMP280;65171;48.378;10.010;2022-11-22T01:15:10;94183.97;;;3.61
76347;BMP280;65171;48.378;10.010;2022-11-22T01:17:35;94197.13;;;3.72
76347;BMP280;65171;48.378;10.010;2022-11-22T01:20:01;94185.91;;;3.88
76347;BMP280;65171;48.378;10.010;2022-11-22T01:22:26;94185.94;;;3.77
76347;BMP280;65171;48.378;10.010;2022-11-22T01:24:51;94183.69;;;3.76
76347;BMP280;65171;48.378;10.010;2022-11-22T01:27:16;94189.75;;;3.80
76347;BMP280;65171;48.378;10.010;2022-11-22T01:29:42;94187.97;;;3.77
76347;BMP280;65171;48.378;10.010;2022-11-22T01:32:07;94194.06;;;3.75
76347;BMP280;65171;48.378;10.010;2022-11-22T01:34:32;94188.47;;;3.81
76347;BMP280;65171;48.378;10.010;2022-11-22T01:36:57;94195.28;;;3.91
76347;BMP280;65171;48.378;10.010;2022-11-22T01:39:23;94197.84;;;3.83
76347;BMP280;65171;48.378;10.010;2022-11-22T01:41:48;94197.09;;;3.77
76347;BMP280;65171;48.378;10.010;2022-11-22T01:46:48;94202.91;;;3.90
76347;BMP280;65171;48.378;10.010;2022-11-22T01:49:26;94209.75;;;3.95
76347;BMP280;65171;48.378;10.010;2022-11-22T01:51:55;94190.22;;;3.89
76347;BMP280;65171;48.378;10.010;2022-11-22T01:54:24;94197.06;;;3.88
76347;BMP280;65171;48.378;10.010;2022-11-22T01:56:54;94203.16;;;3.92
76347;BMP280;65171;48.378;10.010;2022-11-22T01:59:24;94197.31;;;3.96
76347;BMP280;65171;48.378;10.010;2022-11-22T02:01:51;94190.44;;;3.97
76347;BMP280;65171;48.378;10.010;2022-11-22T02:04:18;94185.16;;;3.99
76347;BMP280;65171;48.378;10.010;2022-11-22T02:06:57;94192.22;;;3.94
76347;BMP280;65171;48.378;10.010;2022-11-22T02:09:23;94188.66;;;4.05
76347;BMP280;65171;48.378;10.010;2022-11-22T02:11:51;94204.63;;;4.04
76347;BMP280;65171;48.378;10.010;2022-11-22T02:14:20;94189.94;;;4.04
76347;BMP280;65171;48.378;10.010;2022-11-22T02:16:47;94208.44;;;4.07
76347;BMP280;65171;48.378;10.010;2022-11-22T02:19:15;94203.63;;;4.07
76347;BMP280;65171;48.378;10.010;2022-11-22T02:21:46;94200.09;;;4.01
76347;BMP280;65171;48.378;10.010;2022-11-22T02:24:23;94201.88;;;3.93
76347;BMP280;65171;48.378;10.010;2022-11-22T02:26:50;94213.78;;;3.99
76347;BMP280;65171;48.378;10.010;2022-11-22T02:29:15;94213.50;;;4.03
76347;BMP280;65171;48.378;10.010;2022-11-22T02:31:44;94205.88;;;4.09
76347;BMP280;65171;48.378;10.010;2022-11-22T02:34:11;94209.22;;;4.07
76347;BMP280;65171;48.378;10.010;2022-11-22T02:36:41;94192.75;;;3.93
76347;BMP280;65171;48.378;10.010;2022-11-22T02:39:08;94208.66;;;4.14
76347;BMP280;65171;48.378;10.010;2022-11-22T02:41:36;94211.47;;;4.14
76347;BMP280;65171;48.378;10.010;2022-11-22T02:44:01;94217.28;;;4.16
76347;BMP280;65171;48.378;10.010;2022-11-22T02:46:26;94207.41;;;4.15
76347;BMP280;65171;48.378;10.010;2022-11-22T02:48:52;94210.44;;;4.12
76347;BMP280;65171;48.378;10.010;2022-11-22T02:51:17;94219.28;;;4.27
76347;BMP280;65171;48.378;10.010;2022-11-22T02:53:43;94232.00;;;4.11
76347;BMP280;65171;48.378;10.010;2022-11-22T02:56:08;94219.31;;;4.10
76347;BMP280;65171;48.378;10.010;2022-11-22T02:58:33;94218.75;;;4.28
76347;BMP280;65171;48.378;10.010;2022-11-22T03:00:59;94220.03;;;4.27
76347;BMP280;65171;48.378;10.010;2022-11-22T03:03:24;94215.22;;;4.22
76347;BMP280;65171;48.378;10.010;2022-11-22T03:05:49;94220.03;;;4.27
76347;BMP280;65171;48.378;10.010;2022-11-22T03:08:14;94226.66;;;4.24
76347;BMP280;65171;48.378;10.010;2022-11-22T03:10:39;94229.91;;;4.34
76347;BMP280;65171;48.378;10.010;2022-11-22T03:13:05;94232.44;;;4.37
76347;BMP280;65171;48.378;10.010;2022-11-22T03:15:30;94227.59;;;4.38
76347;BMP280;65171;48.378;10.010;2022-11-22T03:18:00;94231.88;;;4.44
76347;BMP280;65171;48.378;10.010;2022-11-22T03:20:26;94217.41;;;4.46
76347;BMP280;65171;48.378;10.010;2022-11-22T03:22:52;94230.66;;;4.40
76347;BMP280;65171;48.378;10.010;2022-11-22T03:25:17;94234.88;;;4.57
76347;BMP280;65171;48.378;10.010;2022-11-22T03:27:42;94221.97;;;4.54
76347;BMP280;65171;48.378;10.010;2022-11-22T03:30:08;94220.94;;;4.52
76347;BMP280;65171;48.378;10.010;2022-11-22T03:32:33;94224.47;;;4.58
76347;BMP280;65171;48.378;10.010;2022-11-22T03:34:58;94223.97;;;4.54
76347;BMP280;65171;48.378;10.010;2022-11-22T03:37:23;94231.56;;;4.59
76347;BMP280;65171;48.378;10.010;2022-11-22T03:39:49;94232.06;;;4.63
76347;BMP280;65171;48.378;10.010;2022-11-22T03:42:14;94233.84;;;4.60
76347;BMP280;65171;48.378;10.010;2022-11-22T03:44:39;94238.38;;;4.69
76347;BMP280;65171;48.378;10.010;2022-11-22T03:47:04;94228.78;;;4.64
76347;BMP280;65171;48.378;10.010;2022-11-22T03:49:29;94229.22;;;4.68
76347;BMP280;65171;48.378;10.010;2022-11-22T03:51:55;94222.41;;;4.64
76347;BMP280;65171;48.378;10.010;2022-11-22T03:54:20;94226.97;;;4.67
76347;BMP280;65171;48.378;10.010;2022-11-22T03:56:45;94216.28;;;4.71
76347;BMP280;65171;48.378;10.010;2022-11-22T03:59:10;94211.25;;;4.64
76347;BMP280;65171;48.378;10.010;2022-11-22T04:01:35;94220.84;;;4.74
76347;BMP280;65171;48.378;10.010;2022-11-22T04:04:01;94219.59;;;4.69
76347;BMP280;65171;48.378;10.010;2022-11-22T04:06:26;94213.03;;;4.67
76347;BMP280;65171;48.378;10.010;2022-11-22T04:08:57;94216.06;;;4.63
76347;BMP280;65171;48.378;10.010;2022-11-22T04:11:22;94213.06;;;4.56
76347;BMP280;65171;48.378;10.010;2022-11-22T04:13:47;94208.50;;;4.53
76347;BMP280;65171;48.378;10.010;2022-11-22T04:16:12;94205.72;;;4.53
76347;BMP280;65171;48.378;10.010;2022-11-22T04:18:38;94207.00;;;4.52
76347;BMP280;65171;48.378;10.010;2022-11-22T04:21:03;94209.56;;;4.50
76347;BMP280;65171;48.378;10.010;2022-11-22T04:23:28;94210.34;;;4.45
76347;BMP280;65171;48.378;10.010;2022-11-22T04:25:54;94211.84;;;4.46
76347;BMP280;65171;48.378;10.010;2022-11-22T04:28:21;94195.88;;;4.41
76347;BMP280;65171;48.378;10.010;2022-11-22T04:30:48;94202.00;;;4.34
76347;BMP280;65171;48.378;10.010;2022-11-22T04:33:14;94214.63;;;4.40
76347;BMP280;65171;48.378;10.010;2022-11-22T04:35:40;94230.38;;;4.43
76347;BMP280;65171;48.378;10.010;2022-11-22T04:38:06;94214.22;;;4.25
76347;BMP280;65171;48.378;10.010;2022-11-22T04:40:32;94222.31;;;4.23
76347;BMP280;65171;48.378;10.010;2022-11-22T04:42:57;94227.91;;;4.23
76347;BMP280;65171;48.378;10.010;2022-11-22T04:45:23;94219.31;;;4.10
76347;BMP280;65171;48.378;10.010;2022-11-22T04:47:48;94219.09;;;4.03
76347;BMP280;65171;48.378;10.010;2022-11-22T04:50:13;94236.56;;;4.14
76347;BMP280;65171;48.378;10.010;2022-11-22T04:52:39;94237.84;;;4.13
76347;BMP280;65171;48.378;10.010;2022-11-22T04:55:04;94243.69;;;4.10
76347;BMP280;65171;48.378;10.010;2022-11-22T04:57:29;94248.53;;;4.04
76347;BMP280;65171;48.378;10.010;2022-11-22T04:59:54;94250.06;;;3.94
76347;BMP280;65171;48.378;10.010;2022-11-22T05:02:20;94247.78;;;3.92
76347;BMP280;65171;48.378;10.010;2022-11-22T05:04:45;94259.69;;;3.87
76347;BMP280;65171;48.378;10.010;2022-11-22T05:07:10;94256.66;;;3.91
76347;BMP280;65171;48.378;10.010;2022-11-22T05:09:35;94253.63;;;3.78
76347;BMP280;65171;48.378;10.010;2022-11-22T05:12:00;94272.91;;;3.70
76347;BMP280;65171;48.378;10.010;2022-11-22T05:14:26;94268.81;;;3.82
76347;BMP280;65171;48.378;10.010;2022-11-22T05:16:51;94276.63;;;4.22
76347;BMP280;65171;48.378;10.010;2022-11-22T05:19:16;94269.59;;;3.94
76347;BMP280;65171;48.378;10.010;2022-11-22T05:21:41;94274.38;;;3.93
76347;BMP280;65171;48.378;10.010;2022-11-22T05:24:07;94284.28;;;3.83
76347;BMP280;65171;48.378;10.010;2022-11-22T05:26:34;94276.72;;;3.78
76347;BMP280;65171;48.378;10.010;2022-11-22T05:29:08;94280.75;;;3.72
76347;BMP280;65171;48.378;10.010;2022-11-22T05:31:35;94281.25;;;3.70
76347;BMP280;65171;48.378;10.010;2022-11-22T05:34:00;94297.47;;;3.77
76347;BMP280;65171;48.378;10.010;2022-11-22T05:36:26;94292.16;;;3.74
76347;BMP280;65171;48.378;10.010;2022-11-22T05:38:51;94301.78;;;3.73
76347;BMP280;65171;48.378;10.010;2022-11-22T05:41:17;94303.56;;;3.81
76347;BMP280;65171;48.378;10.010;2022-11-22T05:43:43;94302.56;;;3.73
76347;BMP280;65171;48.378;10.010;2022-11-22T05:48:41;94299.78;;;3.73
76347;BMP280;65171;48.378;10.010;2022-11-22T05:51:09;94303.03;;;3.77
76347;BMP280;65171;48.378;10.010;2022-11-22T05:53:35;94307.63;;;3.69
76347;BMP280;65171;48.378;10.010;2022-11-22T05:56:05;94303.81;;;3.67
76347;BMP280;65171;48.378;10.010;2022-11-22T05:58:31;94300.00;;;3.75
76347;BMP280;65171;48.378;10.010;2022-11-22T06:01:02;94313.72;;;3.73
76347;BMP280;65171;48.378;10.010;2022-11-22T06:03:27;94301.00;;;3.72
76347;BMP280;65171;48.378;10.010;2022-11-22T06:05:52;94303.56;;;3.76
76347;BMP280;65171;48.378;10.010;2022-11-22T06:08:18;94301.28;;;3.69
76347;BMP280;65171;48.378;10.010;2022-11-22T06:10:43;94303.06;;;3.72
76347;BMP280;65171;48.378;10.010;2022-11-22T06:13:08;94302.28;;;3.82
76347;BMP280;65171;48.378;10.010;2022-11-22T06:15:33;94297.72;;;3.63
76347;BMP280;65171;48.378;10.010;2022-11-22T06:17:58;94308.88;;;3.74
76347;BMP280;65171;48.378;10.010;2022-11-22T06:20:24;94307.88;;;3.77
76347;BMP280;65171;48.378;10.010;2022-11-22T06:22:49;94321.81;;;3.71
76347;BMP280;65171;48.378;10.010;2022-11-22T06:25:14;94331.44;;;3.81
76347;BMP280;65171;48.378;10.010;2022-11-22T06:27:39;94336.50;;;3.88
76347;BMP280;65171;48.378;10.010;2022-11-22T06:30:05;94336.25;;;3.97
76347;BMP280;65171;48.378;10.010;2022-11-22T06:32:32;94338.28;;;3.97
76347;BMP280;65171;48.378;10.010;2022-11-22T06:34:57;94335.75;;;3.88
76347;BMP280;65171;48.378;10.010;2022-11-22T06:37:22;94340.59;;;3.93
76347;BMP280;65171;48.378;10.010;2022-11-22T06:39:47;94339.31;;;3.94
76347;BMP280;65171;48.378;10.010;2022-11-22T06:42:13;94357.31;;;4.04
76347;BMP280;65171;48.378;10.010;2022-11-22T06:44:38;94357.31;;;3.98
76347;BMP280;65171;48.378;10.010;2022-11-22T06:47:03;94366.44;;;4.04
76347;BMP280;65171;48.378;10.010;2022-11-22T06:49:28;94366.16;;;4.08
76347;BMP280;65171;48.378;10.010;2022-11-22T06:51:54;94371.75;;;4.08
76347;BMP280;65171;48.378;10.010;2022-11-22T06:54:19;94356.28;;;4.07
76347;BMP280;65171;48.378;10.010;2022-11-22T06:56:44;94374.53;;;4.24
76347;BMP280;65171;48.378;10.010;2022-11-22T06:59:10;94393.06;;;4.22
76347;BMP280;65171;48.378;10.010;2022-11-22T07:01:36;94410.53;;;4.22
76347;BMP280;65171;48.378;10.010;2022-11-22T07:04:02;94390.53;;;4.18
76347;BMP280;65171;48.378;10.010;2022-11-22T07:06:31;94406.25;;;4.27
76347;BMP280;65171;48.378;10.010;2022-11-22T07:08:58;94410.31;;;4.31
76347;BMP280;65171;48.378;10.010;2022-11-22T07:11:26;94407.00;;;4.38
76347;BMP280;65171;48.378;10.010;2022-11-22T07:13:53;94409.53;;;4.36
76347;BMP280;65171;48.378;10.010;2022-11-22T07:16:20;94412.59;;;4.44
76347;BMP280;65171;48.378;10.010;2022-11-22T07:18:46;94413.56;;;4.46
76347;BMP280;65171;48.378;10.010;2022-11-22T07:21:17;94413.59;;;4.41
76347;BMP280;65171;48.378;10.010;2022-11-22T07:23:45;94428.28;;;4.47
76347;BMP280;65171;48.378;10.010;2022-11-22T07:26:12;94422.94;;;4.49
76347;BMP280;65171;48.378;10.010;2022-11-22T07:28:38;94421.94;;;4.52
76347;BMP280;65171;48.378;10.010;2022-11-22T07:31:05;94431.34;;;4.54
76347;BMP280;65171;48.378;10.010;2022-11-22T07:33:31;94432.09;;;4.55
76347;BMP280;65171;48.378;10.010;2022-11-22T07:36:03;94439.19;;;4.61
76347;BMP280;65171;48.378;10.010;2022-11-22T07:38:29;94433.13;;;4.52
76347;BMP280;65171;48.378;10.010;2022-11-22T07:40:54;94416.34;;;4.57
76347;BMP280;65171;48.378;10.010;2022-11-22T07:43:19;94431.56;;;4.67
76347;BMP280;65171;48.378;10.010;2022-11-22T07:45:44;94444.78;;;4.56
76347;BMP280;65171;48.378;10.010;2022-11-22T07:48:09;94440.47;;;4.60
76347;BMP280;65171;48.378;10.010;2022-11-22T07:50:35;94444.50;;;4.65
76347;BMP280;65171;48.378;10.010;2022-11-22T07:53:00;94441.25;;;4.61
76347;BMP280;65171;48.378;10.010;2022-11-22T07:55:26;94447.59;;;4.56
76347;BMP280;65171;48.378;10.010;2022-11-22T07:57:52;94436.41;;;4.61
76347;BMP280;65171;48.378;10.010;2022-11-22T08:00:18;94436.13;;;4.70
76347;BMP280;65171;48.378;10.010;2022-11-22T08:02:43;94420.44;;;4.51
76347;BMP280;65171;48.378;10.010;2022-11-22T08:05:08;94443.50;;;4.68
76347;BMP280;65171;48.378;10.010;2022-11-22T08:07:34;94447.28;;;4.76
76347;BMP280;65171;48.378;10.010;2022-11-22T08:09:59;94438.66;;;4.79
76347;BMP280;65171;48.378;10.010;2022-11-22T08:12:24;94438.66;;;4.79
76347;BMP280;65171;48.378;10.010;2022-11-22T08:14:49;94433.84;;;4.74
76347;BMP280;65171;48.378;10.010;2022-11-22T08:17:14;94431.72;;;5.08
76347;BMP280;65171;48.378;10.010;2022-11-22T08:19:40;94425.88;;;5.11
76347;BMP280;65171;48.378;10.010;2022-11-22T08:22:05;94428.97;;;4.97
76347;BMP280;65171;48.378;10.010;2022-11-22T08:24:30;94429.50;;;4.90
76347;BMP280;65171;48.378;10.010;2022-11-22T08:26:55;94428.50;;;4.87
76347;BMP280;65171;48.378;10.010;2022-11-22T08:29:20;94438.88;;;4.98
76347;BMP280;65171;48.378;10.010;2022-11-22T08:31:46;94432.47;;;5.08
76347;BMP280;65171;48.378;10.010;2022-11-22T08:34:11;94437.00;;;5.17
76347;BMP280;65171;48.378;10.010;2022-11-22T08:36:37;94435.72;;;5.23
76347;BMP280;65171;48.378;10.010;2022-11-22T08:39:02;94439.03;;;5.22
76347;BMP280;65171;48.378;10.010;2022-11-22T08:41:27;94419.25;;;5.14
76347;BMP280;65171;48.378;10.010;2022-11-22T08:43:52;94434.69;;;5.32
76347;BMP280;65171;48.378;10.010;2022-11-22T08:46:18;94426.06;;;5.24
76347;BMP280;65171;48.378;10.010;2022-11-22T08:48:44;94426.25;;;5.37
76347;BMP280;65171;48.378;10.010;2022-11-22T08:51:11;94427.81;;;5.38
76347;BMP280;65171;48.378;10.010;2022-11-22T08:53:38;94432.84;;;5.45
76347;BMP280;65171;48.378;10.010;2022-11-22T08:56:05;94436.66;;;5.48
76347;BMP280;65171;48.378;10.010;2022-11-22T08:58:32;94435.47;;;5.27
76347;BMP280;65171;48.378;10.010;2022-11-22T09:01:14;94439.72;;;5.44
76347;BMP280;65171;48.378;10.010;2022-11-22T09:03:40;94451.31;;;5.59
76347;BMP280;65171;48.378;10.010;2022-11-22T09:06:11;94440.69;;;5.58
76347;BMP280;65171;48.378;10.010;2022-11-22T09:08:37;94454.34;;;5.72
76347;BMP280;65171;48.378;10.010;2022-11-22T09:11:07;94457.66;;;5.65
76347;BMP280;65171;48.378;10.010;2022-11-22T09:13:34;94461.69;;;5.75
76347;BMP280;65171;48.378;10.010;2022-11-22T09:16:08;94458.88;;;5.75
76347;BMP280;65171;48.378;10.010;2022-11-22T09:18:33;94460.13;;;5.85
76347;BMP280;65171;48.378;10.010;2022-11-22T09:21:01;94456.28;;;5.88
76347;BMP280;65171;48.378;10.010;2022-11-22T09:23:27;94474.41;;;5.82
76347;BMP280;65171;48.378;10.010;2022-11-22T09:26:02;94468.53;;;5.80
76347;BMP280;65171;48.378;10.010;2022-11-22T09:28:27;94481.75;;;5.85
76347;BMP280;65171;48.378;10.010;2022-11-22T09:31:09;94494.16;;;5.95
76347;BMP280;65171;48.378;10.010;2022-11-22T09:33:36;94493.31;;;6.05
76347;BMP280;65171;48.378;10.010;2022-11-22T09:38:32;94500.53;;;5.95
76347;BMP280;65171;48.378;10.010;2022-11-22T09:40:58;94515.25;;;6.01
76347;BMP280;65171;48.378;10.010;2022-11-22T09:43:38;94510.88;;;6.06
76347;BMP280;65171;48.378;10.010;2022-11-22T09:54:40;94520.22;;;6.19
76347;BMP280;65171;48.378;10.010;2022-11-22T09:57:14;94514.59;;;6.25
76347;BMP280;65171;48.378;10.010;2022-11-22T09:59:44;94516.28;;;6.39
76347;BMP280;65171;48.378;10.010;2022-11-22T10:02:16;94517.53;;;6.43
76347;BMP280;65171;48.378;10.010;2022-11-22T10:04:47;94530.81;;;6.37
76347;BMP280;65171;48.378;10.010;2022-11-22T10:07:19;94508.31;;;6.48
76347;BMP280;65171;48.378;10.010;2022-11-22T10:12:46;94534.41;;;6.32
76347;BMP280;65171;48.378;10.010;2022-11-22T10:15:25;94539.44;;;6.39
76347;BMP280;65171;48.378;10.010;2022-11-22T10:17:59;94532.31;;;6.38
76347;BMP280;65171;48.378;10.010;2022-11-22T10:20:28;94540.41;;;6.47
76347;BMP280;65171;48.378;10.010;2022-11-22T10:22:54;94523.06;;;6.54
76347;BMP280;65171;48.378;10.010;2022-11-22T10:25:23;94522.56;;;6.50
76347;BMP280;65171;48.378;10.010;2022-11-22T10:28:08;94539.94;;;6.43
76347;BMP280;65171;48.378;10.010;2022-11-22T10:30:40;94520.75;;;6.53
76347;BMP280;65171;48.378;10.010;2022-11-22T10:33:13;94523.69;;;6.71
76347;BMP280;65171;48.378;10.010;2022-11-22T10:41:51;94531.50;;;6.84
76347;BMP280;65171;48.378;10.010;2022-11-22T10:44:33;94525.81;;;6.89
76347;BMP280;65171;48.378;10.010;2022-11-22T10:49:58;94539.69;;;6.76
76347;BMP280;65171;48.378;10.010;2022-11-22T10:52:48;94542.06;;;6.96
76347;BMP280;65171;48.378;10.010;2022-11-22T10:58:07;94540.09;;;6.91
76347;BMP280;65171;48.378;10.010;2022-11-22T11:00:39;94534.03;;;6.82
76347;BMP280;65171;48.378;10.010;2022-11-22T11:03:31;94524.69;;;7.03
76347;BMP280;65171;48.378;10.010;2022-11-22T11:06:00;94535.75;;;6.90
76347;BMP280;65171;48.378;10.010;2022-11-22T11:11:00;94516.13;;;6.90
76347;BMP280;65171;48.378;10.010;2022-11-22T11:13:31;94507.88;;;7.03
76347;BMP280;65171;48.378;10.010;2022-11-22T11:15:59;94511.53;;;6.93
76347;BMP280;65171;48.378;10.010;2022-11-22T11:18:29;94511.19;;;7.02
76347;BMP280;65171;48.378;10.010;2022-11-22T11:20:56;94507.78;;;6.85
76347;BMP280;65171;48.378;10.010;2022-11-22T11:23:22;94512.06;;;6.91
76347;BMP280;65171;48.378;10.010;2022-11-22T11:25:48;94510.22;;;6.94
76347;BMP280;65171;48.378;10.010;2022-11-22T11:28:20;94506.19;;;6.95
76347;BMP280;65171;48.378;10.010;2022-11-22T11:30:57;94510.53;;;6.90
76347;BMP280;65171;48.378;10.010;2022-11-22T11:33:32;94504.81;;;7.01
76347;BMP280;65171;48.378;10.010;2022-11-22T11:36:05;94501.69;;;7.10
76347;BMP280;65171;48.378;10.010;2022-11-22T11:38:36;94491.81;;;7.04
76347;BMP280;65171;48.378;10.010;2022-11-22T11:41:25;94490.28;;;7.03
76347;BMP280;65171;48.378;10.010;2022-11-22T11:43:54;94476.50;;;7.05
76347;BMP280;65171;48.378;10.010;2022-11-22T11:46:44;94488.25;;;7.03
76347;BMP280;65171;48.378;10.010;2022-11-22T11:49:16;94487.25;;;7.01
76347;BMP280;65171;48.378;10.010;2022-11-22T11:51:44;94483.97;;;6.97
76347;BMP280;65171;48.378;10.010;2022-11-22T11:54:14;94478.00;;;6.82
76347;BMP280;65171;48.378;10.010;2022-11-22T11:56:44;94475.78;;;6.99
76347;BMP280;65171;48.378;10.010;2022-11-22T11:59:13;94474.47;;;7.05
76347;BMP280;65171;48.378;10.010;2022-11-22T12:02:43;94490.47;;;7.10
76347;BMP280;65171;48.378;10.010;2022-11-22T12:05:04;94476.38;;;7.16
76347;BMP280;65171;48.378;10.010;2022-11-22T12:09:58;94470.19;;;6.99
76347;BMP280;65171;48.378;10.010;2022-11-22T12:17:59;94461.47;;;7.02
76347;BMP280;65171;48.378;10.010;2022-11-22T12:20:42;94471.47;;;6.98
76347;BMP280;65171;48.378;10.010;2022-11-22T12:26:02;94459.69;;;7.05
76347;BMP280;65171;48.378;10.010;2022-11-22T12:28:28;94458.81;;;7.15
76347;BMP280;65171;48.378;10.010;2022-11-22T12:33:30;94442.28;;;7.12
76347;BMP280;65171;48.378;10.010;2022-11-22T12:35:58;94452.25;;;7.07
76347;BMP280;65171;48.378;10.010;2022-11-22T12:38:28;94445.84;;;7.12
76347;BMP280;65171;48.378;10.010;2022-11-22T12:40:59;94439.78;;;7.08
76347;BMP280;65171;48.378;10.010;2022-11-22T12:43:35;94446.91;;;7.09
76347;BMP280;65171;48.378;10.010;2022-11-22T12:46:37;94445.16;;;7.06
76347;BMP280;65171;48.378;10.010;2022-11-22T12:49:10;94441.81;;;7.08
76347;BMP280;65171;48.378;10.010;2022-11-22T12:51:46;94451.84;;;6.98
76347;BMP280;65171;48.378;10.010;2022-11-22T12:54:17;94444.91;;;7.04
76347;BMP280;65171;48.378;10.010;2022-11-22T12:56:53;94437.53;;;7.01
76347;BMP280;65171;48.378;10.010;2022-11-22T12:59:41;94453.22;;;7.15
76347;BMP280;65171;48.378;10.010;2022-11-22T13:02:19;94447.94;;;7.06
76347;BMP280;65171;48.378;10.010;2022-11-22T13:10:39;94459.16;;;7.06
76347;BMP280;65171;48.378;10.010;2022-11-22T13:15:52;94455.53;;;7.11
76347;BMP280;65171;48.378;10.010;2022-11-22T13:18:18;94454.47;;;6.90
76347;BMP280;65171;48.378;10.010;2022-11-22T13:20:54;94470.25;;;6.93
76347;BMP280;65171;48.378;10.010;2022-11-22T13:23:40;94469.53;;;6.87
76347;BMP280;65171;48.378;10.010;2022-11-22T13:26:14;94463.97;;;6.82
76347;BMP280;65171;48.378;10.010;2022-11-22T13:28:40;94462.06;;;6.95
76347;BMP280;65171;48.378;10.010;2022-11-22T13:33:37;94457.94;;;6.78
76347;BMP280;65171;48.378;10.010;2022-11-22T13:38:52;94450.75;;;6.82
76347;BMP280;65171;48.378;10.010;2022-11-22T13:41:28;94459.03;;;6.69
76347;BMP280;65171;48.378;10.010;2022-11-22T13:47:03;94454.94;;;6.70
76347;BMP280;65171;48.378;10.010;2022-11-22T13:52:04;94454.16;;;6.70
76347;BMP280;65171;48.378;10.010;2022-11-22T13:59:46;94458.34;;;6.58
76347;BMP280;65171;48.378;10.010;2022-11-22T14:02:21;94465.44;;;6.64
76347;BMP280;65171;48.378;10.010;2022-11-22T14:04:52;94457.63;;;6.52
76347;BMP280;65171;48.378;10.010;2022-11-22T14:07:29;94451.09;;;6.44
76347;BMP280;65171;48.378;10.010;2022-11-22T14:09:57;94458.69;;;6.49
76347;BMP280;65171;48.378;10.010;2022-11-22T14:12:34;94443.41;;;6.50
76347;BMP280;65171;48.378;10.010;2022-11-22T14:18:09;94444.81;;;6.62
76347;BMP280;65171;48.378;10.010;2022-11-22T14:31:27;94451.75;;;6.55
76347;BMP280;65171;48.378;10.010;2022-11-22T14:34:22;94454.25;;;6.59
76347;BMP280;65171;48.378;10.010;2022-11-22T14:45:02;94452.88;;;6.41
76347;BMP280;65171;48.378;10.010;2022-11-22T14:47:28;94459.50;;;6.38
76347;BMP280;65171;48.378;10.010;2022-11-22T14:49:54;94468.16;;;6.40
76347;BMP280;65171;48.378;10.010;2022-11-22T14:52:26;94466.41;;;6.37
76347;BMP280;65171;48.378;10.010;2022-11-22T14:55:16;94473.28;;;6.36
76347;BMP280;65171;48.378;10.010;2022-11-22T14:57:42;94461.38;;;6.30
76347;BMP280;65171;48.378;10.010;2022-11-22T15:00:18;94478.66;;;6.34
76347;BMP280;65171;48.378;10.010;2022-11-22T15:03:25;94478.44;;;6.27
76347;BMP280;65171;48.378;10.010;2022-11-22T15:06:06;94492.38;;;6.38
76347;BMP280;65171;48.378;10.010;2022-11-22T15:08:56;94456.72;;;6.03
76347;BMP280;65171;48.378;10.010;2022-11-22T15:14:39;94488.94;;;6.21
76347;BMP280;65171;48.378;10.010;2022-11-22T15:16:43;94494.31;;;6.08
76347;BMP280;65171;48.378;10.010;2022-11-22T15:19:30;94495.06;;;6.14
76347;BMP280;65171;48.378;10.010;2022-11-22T15:22:13;94497.13;;;6.13
76347;BMP280;65171;48.378;10.010;2022-11-22T15:24:39;94506.53;;;6.10
76347;BMP280;65171;48.378;10.010;2022-11-22T15:27:16;94507.31;;;6.05
76347;BMP280;65171;48.378;10.010;2022-11-22T15:29:42;94514.47;;;6.06
76347;BMP280;65171;48.378;10.010;2022-11-22T15:32:08;94520.06;;;6.06
76347;BMP280;65171;48.378;10.010;2022-11-22T15:34:33;94514.72;;;6.03
76347;BMP280;65171;48.378;10.010;2022-11-22T15:37:12;94514.19;;;6.04
76347;BMP280;65171;48.378;10.010;2022-11-22T15:39:40;94512.47;;;5.96
76347;BMP280;65171;48.378;10.010;2022-11-22T15:42:14;94521.41;;;5.94
76347;BMP280;65171;48.378;10.010;2022-11-22T15:44:39;94521.41;;;5.89
76347;BMP280;65171;48.378;10.010;2022-11-22T15:47:05;94523.19;;;5.86
76347;BMP280;65171;48.378;10.010;2022-11-22T15:49:30;94532.84;;;5.91
76347;BMP280;65171;48.378;10.010;2022-11-22T15:51:57;94523.72;;;5.85